LIBDLELC

Guest
Details From LIBD - Bari Palese Macchie
To LELC - Murcia San Javier
Flight Number -
Tags Generated
Created
Modified
Stats Distance 837 nm / 1,550 km
Max Altitude 0 ft / 0 m
Waypoints 3
Social Downloads 0
Likes 0
Share VATSIM

Download

Looking for another format? Having issues loading an existing format? Contact us
Advertisement - Login to hide

Notes

Generated

Route

LIBD VSJ02 LELC

ID Type Via Altitude Latitude Longitude Leg Dist Tot Dist Heading (true) Name
O LIBD APT - 0 ft / 0 m 41.13463˚ 16.74687˚ - 0 nm - -
VSJ02 FIX - 0 ft / 0 m 37.79149˚ -0.79228˚ 836 nm 836 nm 262° / 251° -
O LELC APT - 0 ft / 0 m 37.78675˚ -0.81389˚ 1 nm 837 nm 255° / 254° -

Altitude Profile

Advertisement - Login to hide

Weather


0- 5 10 15 20 25 30 35+ Temperature / ° C

Clouds and Precipitation
Forecast for 2018-05-24 18:00 UTC. Updated 5 hours ago

Ground ~20,000 ft ~40,000 ft Winds

LIBD

Details ICAO LIBD (BRI)
Name Bari Palese Macchie
Region Italy
Timezone Europe/Rome (UTC+2.0)
Stats Elevation 177 ft / 54 m (AMSL)
Location 41.137865° 16.758318°
Runways 1
Magnetic Variation 3.782° E

METAR

LIBD 242120Z 26003KT CAVOK 17/16 Q1015

Decode

TAF

TAF LIBD 241700Z 2418/2518 02010KT 9999 FEW030 BECMG 2420/2422 28008KT BECMG 2508/2510 02012KT

Decode

Departure Runways

ID Width Length Bearing (true) Bearing (mag) Surface Threshold Offset Overrun Length
07 148 ft / 45 m 9,262 ft / 2,823 m 69.39° 65.61° Asphalt 1,257 ft / 383 m 0 ft / 0 m
25 148 ft / 45 m 9,262 ft / 2,823 m 249.42° 245.64° Asphalt 0 ft / 0 m 194 ft / 59 m

LELC

Details ICAO LELC (MJV)
Name Murcia San Javier
Region Spain
Timezone Europe/Madrid (UTC+2.0)
Stats Elevation 11 ft / 3 m (AMSL)
Location 37.780256° -0.812257°
Runways 3
Magnetic Variation 0.168° E

METAR

LELC 242100Z 03018KT 9999 FEW030 21/17 Q1011 NOSIG

Decode

TAF

TAF LELC 241700Z 2418/2518 04015KT 9999 FEW035 TX26/2512Z TN18/2505Z PROB40 TEMPO 2418/2420 04018G28KT BECMG 2423/2502 32008KT BECMG 2507/2510 21012KT PROB40 TEMPO 2514/2518 21016G26KT

Decode

Destination Runways

ID Width Length Bearing (true) Bearing (mag) Surface Threshold Offset Overrun Length
05L 164 ft / 50 m 6,553 ft / 1,997 m 45.62° 45.45° Asphalt 656 ft / 200 m 0 ft / 0 m
05R 148 ft / 45 m 7,553 ft / 2,302 m 45.63° 45.46° Asphalt 0 ft / 0 m 656 ft / 200 m
14 197 ft / 60 m 2,657 ft / 810 m 136.05° 135.88° Grass 0 ft / 0 m 0 ft / 0 m
23L 148 ft / 45 m 7,553 ft / 2,302 m 225.65° 225.48° Asphalt 0 ft / 0 m 656 ft / 200 m
23R 164 ft / 50 m 6,553 ft / 1,997 m 225.63° 225.46° Asphalt 656 ft / 200 m 0 ft / 0 m
32 197 ft / 60 m 2,657 ft / 810 m 316.05° 315.88° Grass 0 ft / 0 m 0 ft / 0 m

Approach Navaids

Runway Type Ident Frequency Range Bearing (true) Bearing (mag) Slope Elevation
05R Localiser ISJ 110.50 MHz 18 nm / 33 km 45.68° 45.51° - 11 ft / 3 m (AMSL)
05R Glidescope ISJ 110.50 MHz 10 nm / 19 km 45.64° 45.47° 2.80° 11 ft / 3 m (AMSL)